Time;durP1;ratioP1;P1;durP2;ratioP2;P2;SDS_P1;SDS_P2;PMS_P1;PMS_P2;Temp;Humidity;BMP_temperature;BMP_pressure;BME280_temperature;BME280_humidity;BME280_pressure;Samples;Min_cycle;Max_cycle;Signal;HPM_P1;HPM_P2
2021/04/21 00:00:09;;;;;;;3.93;3.57;;;;;;;0.27;91.29;92713.39;1826644;77;21055;-76
2021/04/21 00:02:37;;;;;;;4.60;3.87;;;;;;;0.26;91.02;92710.48;1842229;76;21452;-76
2021/04/21 00:05:06;;;;;;;4.92;3.90;;;;;;;0.21;90.89;92703.52;1862016;75;21017;-76
2021/04/21 00:07:34;;;;;;;5.92;4.05;;;;;;;0.16;90.88;92709.13;1856606;77;21037;-76
2021/04/21 00:10:06;;;;;;;7.62;4.58;;;;;;;0.13;91.16;92708.48;1780428;77;22256;-76
2021/04/21 00:12:33;;;;;;;6.35;4.10;;;;;;;0.12;91.52;92709.05;1823941;77;21055;-76
2021/04/21 00:15:00;;;;;;;4.85;4.37;;;;;;;0.14;91.85;92717.48;1812335;76;21098;-76
2021/04/21 00:17:28;;;;;;;4.12;3.75;;;;;;;0.16;91.73;92712.58;1854340;76;21047;-76
2021/04/21 00:19:56;;;;;;;6.17;4.40;;;;;;;0.19;91.83;92713.80;1872700;75;21032;-76
2021/04/21 00:22:25;;;;;;;5.67;4.00;;;;;;;0.24;91.83;92702.25;1823959;76;21263;-73
2021/04/21 00:24:52;;;;;;;9.93;6.92;;;;;;;0.24;91.72;92706.27;1781378;80;21165;-76
2021/04/21 00:27:23;;;;;;;11.12;7.30;;;;;;;0.26;91.92;92709.92;1849912;77;21107;-76
2021/04/21 00:29:54;;;;;;;13.65;8.35;;;;;;;0.27;91.92;92708.05;1849254;77;21104;-76
2021/04/21 00:32:21;;;;;;;8.78;5.47;;;;;;;0.24;91.95;92703.59;1842513;76;21183;-76
2021/04/21 00:34:49;;;;;;;4.75;4.20;;;;;;;0.30;92.06;92709.47;1810551;79;21843;-76
2021/04/21 00:37:16;;;;;;;5.45;4.05;;;;;;;0.30;91.92;92712.14;1816731;79;21078;-77
2021/04/21 00:39:44;;;;;;;5.12;3.77;;;;;;;0.32;91.94;92705.09;1814309;77;21046;-76
2021/04/21 00:42:45;;;;;;;5.28;4.15;;;;;;;0.31;91.74;92711.58;1843244;75;21121;-76
2021/04/21 00:45:15;;;;;;;3.55;3.25;;;;;;;0.34;91.70;92713.00;1857985;76;21119;-75
2021/04/21 00:48:02;;;;;;;4.28;3.80;;;;;;;0.36;91.58;92713.41;1849708;77;21554;-76
2021/04/21 00:50:48;;;;;;;6.15;4.67;;;;;;;0.34;91.51;92718.88;1853610;76;21151;-73
2021/04/21 00:53:20;;;;;;;6.50;4.27;;;;;;;0.40;91.86;92712.92;1824339;78;21056;-75
2021/04/21 00:56:09;;;;;;;22.45;11.10;;;;;;;0.48;91.79;92715.96;1804810;79;21177;-76
2021/04/21 00:59:10;;;;;;;24.65;12.25;;;;;;;0.52;91.53;92716.05;1814477;76;21761;-76
2021/04/21 01:01:38;;;;;;;14.78;10.03;;;;;;;0.56;91.35;92720.13;1846954;77;21611;-76
2021/04/21 01:04:06;;;;;;;9.68;6.85;;;;;;;0.57;91.27;92704.31;1818302;77;21526;-75
2021/04/21 01:06:37;;;;;;;4.92;3.75;;;;;;;0.53;91.12;92706.91;1839872;76;21654;-75
2021/04/21 01:09:06;;;;;;;6.65;3.95;;;;;;;0.46;91.21;92708.87;1829283;76;21210;-75
2021/04/21 01:11:45;;;;;;;4.37;3.72;;;;;;;0.44;91.28;92707.66;1817802;78;21677;-75
2021/04/21 01:14:27;;;;;;;4.95;4.50;;;;;;;0.44;91.38;92714.34;1813697;77;21649;-75
2021/04/21 01:17:03;;;;;;;17.50;9.65;;;;;;;0.43;91.43;92711.45;1803943;77;21177;-75
2021/04/21 01:19:42;;;;;;;22.55;11.15;;;;;;;0.46;91.64;92712.88;1817862;76;21163;-76
2021/04/21 01:22:14;;;;;;;20.68;11.68;;;;;;;0.49;91.40;92716.77;1874210;76;21135;-74
2021/04/21 01:24:49;;;;;;;17.35;10.88;;;;;;;0.52;91.32;92721.39;1818345;74;21095;-76
2021/04/21 01:27:19;;;;;;;20.20;11.35;;;;;;;0.57;91.27;92722.48;1804345;79;21128;-77
2021/04/21 01:29:50;;;;;;;17.10;10.88;;;;;;;0.60;90.98;92724.47;1787924;78;21079;-76
2021/04/21 01:32:29;;;;;;;12.53;8.33;;;;;;;0.61;90.86;92726.58;1814775;77;21176;-76
2021/04/21 01:34:57;;;;;;;8.93;5.70;;;;;;;0.59;90.82;92726.13;1797824;79;21073;-75
2021/04/21 01:37:30;;;;;;;15.28;7.95;;;;;;;0.57;91.06;92727.06;1811959;79;21077;-76
2021/04/21 01:40:11;;;;;;;13.43;7.80;;;;;;;0.57;90.87;92723.81;1829359;77;21341;-76
2021/04/21 01:42:42;;;;;;;15.00;9.88;;;;;;;0.57;90.79;92721.14;1810848;76;21070;-77
2021/04/21 01:45:13;;;;;;;13.50;8.93;;;;;;;0.53;90.59;92717.61;1787795;79;21098;-76
2021/04/21 01:47:42;;;;;;;18.15;11.22;;;;;;;0.51;90.51;92723.09;1804062;78;21129;-77
2021/04/21 01:50:17;;;;;;;11.90;9.50;;;;;;;0.50;90.58;92726.33;1805018;78;21090;-75
2021/04/21 01:53:13;;;;;;;11.38;8.53;;;;;;;0.52;90.65;92715.27;1806917;78;21599;-76
2021/04/21 01:55:54;;;;;;;13.13;6.95;;;;;;;0.49;90.44;92718.10;1840199;76;21107;-75
2021/04/21 01:58:37;;;;;;;7.30;5.55;;;;;;;0.48;90.75;92723.22;1803301;79;21132;-76
2021/04/21 02:01:38;;;;;;;7.60;5.70;;;;;;;0.46;90.60;92720.91;1885095;76;26578;-76
2021/04/21 02:04:28;;;;;;;8.68;6.85;;;;;;;0.43;90.45;92721.59;1821258;78;21049;-76
2021/04/21 02:07:07;;;;;;;6.12;4.67;;;;;;;0.42;90.64;92721.39;1836584;77;21446;-76
2021/04/21 02:10:06;;;;;;;5.50;4.90;;;;;;;0.42;90.62;92720.61;1815489;77;21087;-75
2021/04/21 02:12:51;;;;;;;8.33;6.37;;;;;;;0.35;90.64;92727.91;1807250;79;21060;-75
2021/04/21 02:15:57;;;;;;;13.05;10.15;;;;;;;0.33;90.90;92727.47;1857520;76;21096;-76
2021/04/21 02:18:59;;;;;;;14.75;10.45;;;;;;;0.30;90.77;92728.72;1858313;76;21060;-75
2021/04/21 02:21:43;;;;;;;14.83;9.85;;;;;;;0.23;90.55;92734.14;1864998;76;21921;-73
2021/04/21 02:24:25;;;;;;;14.75;9.80;;;;;;;0.18;90.66;92730.94;1849930;74;21140;-75
2021/04/21 02:27:13;;;;;;;21.17;11.80;;;;;;;0.15;90.71;92728.95;1802077;76;21109;-76
2021/04/21 02:30:00;;;;;;;15.60;10.40;;;;;;;0.11;90.88;92736.88;1848229;74;21123;-76
2021/04/21 02:32:49;;;;;;;15.32;10.70;;;;;;;0.08;90.83;92734.16;1815099;79;21075;-76
2021/04/21 02:35:23;;;;;;;14.65;8.83;;;;;;;0.02;90.90;92736.30;1839961;77;21616;-77
2021/04/21 02:38:05;;;;;;;6.30;5.45;;;;;;;0.01;91.10;92733.41;1834482;77;21097;-74
2021/04/21 02:40:48;;;;;;;10.88;5.95;;;;;;;-0.04;90.66;92729.64;1801850;79;21136;-76
2021/04/21 02:43:52;;;;;;;8.25;6.08;;;;;;;-0.13;90.61;92737.07;1867040;76;21151;-77
2021/04/21 02:46:33;;;;;;;10.32;6.58;;;;;;;-0.26;90.84;92732.38;1833443;78;21017;-76
2021/04/21 02:49:42;;;;;;;4.40;4.00;;;;;;;-0.34;91.45;92727.41;1824685;75;22636;-74
2021/04/21 02:52:41;;;;;;;8.08;4.37;;;;;;;-0.36;92.01;92724.86;1849150;77;21136;-76
2021/04/21 02:55:17;;;;;;;5.30;4.20;;;;;;;-0.38;91.83;92729.19;1817191;76;21661;-76
2021/04/21 02:58:02;;;;;;;8.05;4.53;;;;;;;-0.46;91.84;92734.14;1832148;78;21471;-76
2021/04/21 03:00:43;;;;;;;5.45;4.10;;;;;;;-0.51;92.12;92732.50;1823280;75;26409;-76
2021/04/21 03:03:33;;;;;;;5.28;4.58;;;;;;;-0.53;92.39;92740.09;1867468;76;22276;-76
2021/04/21 03:06:04;;;;;;;5.03;4.37;;;;;;;-0.52;92.38;92738.20;1849043;76;21132;-76
2021/04/21 03:08:42;;;;;;;4.97;4.20;;;;;;;-0.53;92.44;92740.09;1837837;77;21054;-76
2021/04/21 03:11:25;;;;;;;4.58;4.15;;;;;;;-0.52;92.50;92746.98;1816801;76;21165;-76
2021/04/21 03:13:58;;;;;;;6.50;4.40;;;;;;;-0.47;92.63;92745.17;1882463;76;21116;-76
2021/04/21 03:16:26;;;;;;;7.37;5.55;;;;;;;-0.41;92.61;92750.50;1852933;76;21182;-76
2021/04/21 03:18:53;;;;;;;22.80;11.12;;;;;;;-0.40;92.46;92750.14;1821836;77;21076;-74
2021/04/21 03:21:30;;;;;;;20.83;11.43;;;;;;;-0.43;92.31;92742.81;1819282;77;21094;-76
2021/04/21 03:24:12;;;;;;;25.67;12.20;;;;;;;-0.44;92.13;92749.84;1855003;76;21147;-75
2021/04/21 03:26:41;;;;;;;17.75;10.80;;;;;;;-0.48;92.19;92744.41;1841287;77;21571;-76
2021/04/21 03:29:13;;;;;;;15.17;10.43;;;;;;;-0.46;92.22;92744.82;1754499;77;21211;-76
2021/04/21 03:31:42;;;;;;;16.73;9.65;;;;;;;-0.43;92.18;92748.16;1820816;78;21119;-76
2021/04/21 03:34:13;;;;;;;12.18;8.65;;;;;;;-0.46;91.81;92746.72;1863179;76;21156;-76
2021/04/21 03:36:41;;;;;;;15.63;9.40;;;;;;;-0.51;91.80;92747.19;1846297;74;21104;-75
2021/04/21 03:39:11;;;;;;;19.15;10.55;;;;;;;-0.52;91.86;92749.66;1832676;76;21198;-75
2021/04/21 03:41:38;;;;;;;18.75;10.75;;;;;;;-0.56;91.79;92753.35;1865628;76;21663;-75
2021/04/21 03:44:06;;;;;;;17.23;10.20;;;;;;;-0.61;91.74;92759.69;1836528;78;21587;-76
2021/04/21 03:46:34;;;;;;;20.45;11.48;;;;;;;-0.62;91.98;92760.05;1815162;78;21130;-75
2021/04/21 03:49:01;;;;;;;21.20;12.15;;;;;;;-0.60;92.14;92761.80;1840139;77;21134;-75
2021/04/21 03:51:29;;;;;;;12.88;8.70;;;;;;;-0.55;92.15;92765.58;1834003;77;21142;-76
2021/04/21 03:53:56;;;;;;;19.40;10.70;;;;;;;-0.52;92.06;92767.58;1816136;79;21640;-76
2021/04/21 03:56:24;;;;;;;17.55;10.60;;;;;;;-0.52;91.97;92767.02;1819394;76;21074;-76
2021/04/21 03:58:54;;;;;;;19.05;9.95;;;;;;;-0.49;91.92;92768.20;1848336;77;21098;-76
2021/04/21 04:01:25;;;;;;;13.00;9.23;;;;;;;-0.47;91.89;92773.22;1857208;76;21531;-76
2021/04/21 04:03:56;;;;;;;13.27;8.27;;;;;;;-0.47;91.68;92780.67;1847559;77;21114;-76
2021/04/21 04:06:41;;;;;;;13.73;8.47;;;;;;;-0.48;91.38;92775.69;1830810;77;21360;-76
2021/04/21 04:09:10;;;;;;;14.55;10.88;;;;;;;-0.50;91.59;92786.12;1836314;76;21131;-75
2021/04/21 04:11:46;;;;;;;16.20;11.93;;;;;;;-0.49;91.71;92786.91;1898838;75;21033;-75
2021/04/21 04:14:23;;;;;;;15.30;10.00;;;;;;;-0.49;91.72;92792.24;1795517;78;21056;-75
2021/04/21 04:16:55;;;;;;;11.68;8.13;;;;;;;-0.48;91.70;92795.72;1806008;79;21471;-76
2021/04/21 04:19:22;;;;;;;19.98;11.43;;;;;;;-0.47;91.62;92795.92;1843444;77;22092;-75
2021/04/21 04:22:15;;;;;;;16.55;10.88;;;;;;;-0.50;91.50;92800.05;1845688;77;21139;-76
2021/04/21 04:24:52;;;;;;;13.72;10.53;;;;;;;-0.48;91.67;92789.04;1842758;77;21069;-76
2021/04/21 04:27:25;;;;;;;15.25;11.33;;;;;;;-0.46;91.69;92801.48;1819559;77;21122;-76
2021/04/21 04:29:56;;;;;;;11.05;8.93;;;;;;;-0.39;91.83;92800.34;1888974;75;21079;-76
2021/04/21 04:32:24;;;;;;;19.32;9.23;;;;;;;-0.09;92.83;92808.19;1853157;76;21488;-76
2021/04/21 04:34:55;;;;;;;17.00;10.55;;;;;;;0.25;92.41;92804.64;1805029;78;21601;-76
2021/04/21 04:37:25;;;;;;;16.37;11.68;;;;;;;0.44;90.74;92803.95;1858609;76;21104;-77
2021/04/21 04:39:54;;;;;;;21.05;13.93;;;;;;;0.41;89.27;92811.32;1851823;75;21176;-77
2021/04/21 04:42:21;;;;;;;24.92;12.45;;;;;;;0.31;88.93;92808.63;1811662;77;21109;-76
2021/04/21 04:44:50;;;;;;;16.20;10.08;;;;;;;0.21;89.14;92807.80;1804336;77;22327;-77
2021/04/21 04:47:33;;;;;;;15.90;10.13;;;;;;;0.21;89.46;92812.58;1824826;78;21048;-77
2021/04/21 04:50:09;;;;;;;12.70;9.68;;;;;;;0.26;89.63;92805.41;1912574;74;21052;-76
2021/04/21 04:52:40;;;;;;;15.15;11.68;;;;;;;0.32;89.17;92806.72;1840591;76;21167;-77
2021/04/21 04:55:10;;;;;;;13.65;9.90;;;;;;;0.27;88.84;92806.98;1811596;78;21056;-77
2021/04/21 04:57:43;;;;;;;14.60;11.05;;;;;;;0.26;89.05;92806.75;1831619;78;21367;-77
2021/04/21 05:00:12;;;;;;;18.75;13.25;;;;;;;0.28;89.20;92809.30;1774421;76;21171;-77
2021/04/21 05:02:45;;;;;;;17.40;11.73;;;;;;;0.29;89.09;92813.53;1871562;76;21136;-77
2021/04/21 05:05:13;;;;;;;21.25;14.33;;;;;;;0.28;88.88;92816.55;1813652;78;21096;-77
2021/04/21 05:07:46;;;;;;;19.35;13.55;;;;;;;0.26;89.05;92816.11;1785009;78;21115;-77
2021/04/21 05:10:27;;;;;;;19.48;13.20;;;;;;;0.26;89.21;92816.11;1835886;77;21373;-77
2021/04/21 05:13:00;;;;;;;27.65;17.82;;;;;;;0.28;89.17;92824.58;1833529;77;21088;-77
2021/04/21 05:15:54;;;;;;;32.35;23.45;;;;;;;0.30;89.21;92820.98;1821063;78;21028;-77
2021/04/21 05:19:10;;;;;;;41.40;30.02;;;;;;;0.33;89.23;92822.41;1840682;75;21123;-75
2021/04/21 05:22:35;;;;;;;20.80;16.17;;;;;;;0.39;89.32;92819.70;1790340;77;21172;-77
2021/04/21 05:25:44;;;;;;;15.30;10.50;;;;;;;0.54;89.34;92820.82;1840518;77;21412;-77
2021/04/21 05:28:36;;;;;;;11.08;8.38;;;;;;;0.84;89.63;92820.36;1815211;77;21187;-76
2021/04/21 05:31:18;;;;;;;13.10;9.30;;;;;;;1.17;89.68;92822.62;1830639;77;21084;-76
2021/04/21 05:34:42;;;;;;;20.00;13.15;;;;;;;1.51;89.15;92817.58;1835641;78;21148;-75
2021/04/21 05:37:41;;;;;;;16.77;11.28;;;;;;;1.70;87.67;92814.89;1854037;76;21155;-76
2021/04/21 05:40:31;;;;;;;10.80;8.28;;;;;;;1.86;86.09;92812.12;1851202;76;21829;-75
2021/04/21 05:43:19;;;;;;;11.78;8.35;;;;;;;1.92;85.78;92817.41;1809438;78;21156;-76
2021/04/21 05:46:25;;;;;;;8.58;7.37;;;;;;;2.04;86.16;92817.25;1805041;77;21092;-75
2021/04/21 05:49:23;;;;;;;9.80;6.17;;;;;;;2.42;87.67;92815.59;1819127;78;21084;-75
2021/04/21 05:51:56;;;;;;;6.00;4.90;;;;;;;3.06;86.58;92811.79;1813460;78;21557;-77
2021/04/21 05:54:53;;;;;;;7.80;5.05;;;;;;;3.60;85.70;92811.34;1797300;79;21486;-78
2021/04/21 05:57:57;;;;;;;11.03;8.60;;;;;;;4.17;85.42;92812.55;1811034;77;21740;-75
2021/04/21 06:01:04;;;;;;;9.30;6.70;;;;;;;5.16;78.97;92808.39;1829490;77;21155;-76
2021/04/21 06:03:32;;;;;;;8.43;7.03;;;;;;;5.16;78.97;92808.39;1847923;76;21116;-76
2021/04/21 06:06:03;;;;;;;9.13;7.42;;;;;;;5.48;78.27;92807.22;1873291;76;21119;-75
2021/04/21 06:08:31;;;;;;;7.92;6.15;;;;;;;5.76;77.43;92803.32;1810622;79;22073;-75
2021/04/21 06:10:59;;;;;;;8.23;7.40;;;;;;;6.14;76.84;92813.31;1839379;77;21165;-75
2021/04/21 06:13:30;;;;;;;10.98;8.73;;;;;;;6.59;74.71;92808.39;1864802;76;21032;-75
2021/04/21 06:15:58;;;;;;;7.90;6.85;;;;;;;7.05;73.29;92804.92;1836595;76;21049;-75
2021/04/21 06:18:25;;;;;;;9.25;6.50;;;;;;;7.51;72.17;92800.79;1783354;79;21189;-75
2021/04/21 06:20:53;;;;;;;9.88;6.83;;;;;;;8.00;70.51;92809.91;1810835;79;22342;-75
2021/04/21 06:23:24;;;;;;;9.40;7.28;;;;;;;8.49;68.15;92806.80;1849755;77;21641;-76
2021/04/21 06:26:03;;;;;;;7.45;5.95;;;;;;;8.94;67.27;92801.45;1848002;76;21127;-76
2021/04/21 06:28:31;;;;;;;7.10;6.40;;;;;;;9.36;66.04;92804.21;1837104;76;21171;-75
2021/04/21 06:31:11;;;;;;;6.92;6.22;;;;;;;9.76;65.09;92801.89;1817103;77;21470;-74
2021/04/21 06:33:43;;;;;;;5.92;5.20;;;;;;;10.20;65.47;92805.84;1867400;76;22133;-75
2021/04/21 06:36:14;;;;;;;10.80;7.70;;;;;;;10.69;62.87;92801.54;1810140;78;21171;-75
2021/04/21 06:38:42;;;;;;;8.53;6.92;;;;;;;10.94;58.90;92798.44;1839220;78;21041;-75
2021/04/21 06:41:11;;;;;;;9.33;7.60;;;;;;;11.00;58.20;92797.39;1843895;77;21091;-75
2021/04/21 06:43:39;;;;;;;9.85;7.92;;;;;;;10.79;56.35;92809.34;1833995;77;21161;-75
2021/04/21 06:46:10;;;;;;;9.25;7.55;;;;;;;10.34;56.72;92801.41;1871082;76;22217;-74
2021/04/21 06:48:38;;;;;;;8.43;7.53;;;;;;;10.14;58.99;92800.66;1852441;77;21299;-74
2021/04/21 06:51:10;;;;;;;8.40;5.97;;;;;;;10.19;59.03;92800.80;1846761;77;21041;-75
2021/04/21 06:53:37;;;;;;;7.47;6.22;;;;;;;10.43;59.13;92801.70;1857628;77;21608;-75
2021/04/21 06:56:08;;;;;;;7.83;6.80;;;;;;;10.57;55.79;92806.16;1875594;76;21028;-76
2021/04/21 06:58:39;;;;;;;8.88;6.33;;;;;;;10.48;57.88;92803.19;1806610;78;21476;-75
2021/04/21 07:01:15;;;;;;;7.58;5.85;;;;;;;10.49;56.31;92808.20;1796509;79;21139;-75
2021/04/21 07:03:43;;;;;;;9.63;6.20;;;;;;;10.37;56.32;92806.04;1845542;77;21222;-76
2021/04/21 07:06:13;;;;;;;6.08;5.53;;;;;;;10.22;56.19;92802.11;1837578;78;21132;-75
2021/04/21 07:08:40;;;;;;;6.75;6.12;;;;;;;10.22;57.47;92802.70;1812539;77;21270;-75
2021/04/21 07:11:11;;;;;;;6.70;5.10;;;;;;;10.30;58.32;92801.45;1777287;80;21590;-76
2021/04/21 07:13:48;;;;;;;6.50;4.85;;;;;;;10.17;56.12;92801.80;1820204;78;21645;-75
2021/04/21 07:16:21;;;;;;;6.35;4.80;;;;;;;9.89;55.86;92800.17;1831864;77;21123;-76
2021/04/21 07:18:53;;;;;;;7.53;5.00;;;;;;;9.65;56.90;92800.64;1816906;78;21156;-74
2021/04/21 07:21:20;;;;;;;6.65;4.42;;;;;;;9.47;56.82;92802.94;1795641;80;21136;-76
2021/04/21 07:23:52;;;;;;;6.45;5.10;;;;;;;9.32;57.92;92801.53;1832111;78;21402;-75
2021/04/21 07:26:19;;;;;;;9.05;5.08;;;;;;;9.15;60.46;92801.88;1834950;78;21147;-76
2021/04/21 07:28:46;;;;;;;4.67;4.28;;;;;;;8.99;60.92;92811.13;1806049;78;21199;-75
2021/04/21 07:31:17;;;;;;;4.10;3.75;;;;;;;8.90;60.76;92812.92;1820060;76;21490;-75
2021/04/21 07:33:48;;;;;;;5.10;4.60;;;;;;;8.86;59.80;92812.77;1898535;75;21013;-75
2021/04/21 07:36:19;;;;;;;5.95;4.55;;;;;;;8.81;59.63;92807.19;1819165;78;22307;-76
2021/04/21 07:39:01;;;;;;;5.60;4.92;;;;;;;8.80;60.21;92809.72;1865822;76;21040;-76
2021/04/21 07:41:40;;;;;;;4.62;4.22;;;;;;;8.85;60.32;92815.30;1837199;76;21630;-75
2021/04/21 07:44:26;;;;;;;5.47;4.50;;;;;;;8.89;60.09;92816.80;1803991;78;21045;-75
2021/04/21 07:47:07;;;;;;;4.25;3.83;;;;;;;8.92;59.15;92816.60;1862210;75;21088;-74
2021/04/21 07:49:57;;;;;;;5.70;4.75;;;;;;;8.93;58.65;92817.55;1877515;75;21151;-76
2021/04/21 07:52:33;;;;;;;6.17;4.58;;;;;;;8.88;57.48;92815.27;1858632;76;21126;-78
2021/04/21 07:55:16;;;;;;;6.67;5.50;;;;;;;8.86;58.63;92816.83;1848525;77;21695;-76
2021/04/21 07:57:47;;;;;;;6.58;5.08;;;;;;;8.82;58.56;92812.02;1827149;75;21564;-76
2021/04/21 08:00:27;;;;;;;6.17;4.50;;;;;;;8.83;59.80;92817.03;1892033;75;21020;-75
2021/04/21 08:02:56;;;;;;;6.67;5.50;;;;;;;8.90;58.38;92821.64;1816419;75;22620;-74
2021/04/21 08:05:23;;;;;;;6.47;5.28;;;;;;;8.89;57.89;92820.87;1813090;78;21074;-75
2021/04/21 08:08:01;;;;;;;5.65;5.03;;;;;;;8.87;57.04;92824.55;1830030;77;21560;-75
2021/04/21 08:10:32;;;;;;;7.37;4.35;;;;;;;8.88;58.55;92832.89;1872829;76;21493;-75
2021/04/21 08:13:01;;;;;;;6.03;5.40;;;;;;;8.92;57.87;92816.02;1852378;77;21115;-76
2021/04/21 08:15:38;;;;;;;7.78;6.30;;;;;;;8.85;57.59;92830.20;1873037;76;21184;-75
2021/04/21 08:18:14;;;;;;;9.73;7.42;;;;;;;8.74;59.80;92838.41;1837745;76;21160;-74
2021/04/21 08:20:45;;;;;;;6.97;5.47;;;;;;;8.65;60.33;92832.08;1801703;78;21124;-75
2021/04/21 08:23:17;;;;;;;6.90;5.50;;;;;;;8.56;60.42;92836.38;1817499;77;21063;-74
2021/04/21 08:25:45;;;;;;;8.18;5.65;;;;;;;8.41;58.93;92832.98;1861282;76;21119;-75
2021/04/21 08:28:12;;;;;;;5.42;4.92;;;;;;;8.22;59.56;92832.84;1820495;78;21778;-74
2021/04/21 08:30:56;;;;;;;5.37;4.87;;;;;;;8.07;60.90;92832.13;1845743;77;21119;-74
2021/04/21 08:33:23;;;;;;;5.80;5.20;;;;;;;7.95;60.05;92823.86;1811792;78;21134;-75
2021/04/21 08:35:51;;;;;;;6.45;4.95;;;;;;;7.90;61.68;92824.28;1812293;79;21128;-75
2021/04/21 08:38:18;;;;;;;5.33;4.50;;;;;;;8.06;62.57;92828.48;1828950;76;21128;-74
2021/04/21 08:40:46;;;;;;;5.65;4.08;;;;;;;8.47;60.23;92825.98;1872341;75;22153;-76
2021/04/21 08:43:16;;;;;;;4.40;3.98;;;;;;;8.99;59.24;92820.03;1817273;78;21267;-76
2021/04/21 08:45:44;;;;;;;5.17;4.67;;;;;;;9.49;54.76;92820.95;1794716;80;21034;-76
2021/04/21 08:48:12;;;;;;;5.05;4.45;;;;;;;9.63;53.81;92813.27;1779989;78;21161;-75
2021/04/21 08:50:41;;;;;;;4.67;4.20;;;;;;;9.46;53.56;92823.11;1834348;78;21171;-75
2021/04/21 08:53:09;;;;;;;5.20;4.28;;;;;;;9.28;53.27;92827.92;1807824;78;21251;-75
2021/04/21 08:55:38;;;;;;;5.22;4.00;;;;;;;9.13;53.41;92826.50;1778581;80;21112;-74
2021/04/21 08:58:09;;;;;;;4.78;3.67;;;;;;;9.07;54.77;92817.27;1836507;77;21073;-75
2021/04/21 09:00:39;;;;;;;4.75;3.92;;;;;;;9.10;56.00;92828.65;1812392;77;21133;-76
2021/04/21 09:03:07;;;;;;;4.90;4.40;;;;;;;9.15;54.88;92826.88;1892372;75;21143;-76
2021/04/21 09:05:35;;;;;;;4.60;4.20;;;;;;;9.09;54.86;92827.88;1842039;75;21228;-76
2021/04/21 09:08:03;;;;;;;4.50;4.10;;;;;;;9.07;54.67;92826.76;1815098;79;21100;-74
2021/04/21 09:10:31;;;;;;;4.87;4.37;;;;;;;9.10;53.99;92831.36;1814773;79;21175;-75
2021/04/21 09:12:58;;;;;;;4.65;4.25;;;;;;;9.06;54.36;92834.69;1821427;78;21246;-76
2021/04/21 09:15:26;;;;;;;5.85;4.50;;;;;;;9.10;55.14;92825.38;1853136;77;21140;-75
2021/04/21 09:17:57;;;;;;;4.62;4.00;;;;;;;9.29;55.50;92817.84;1867281;76;21157;-75
2021/04/21 09:20:26;;;;;;;4.90;3.50;;;;;;;9.59;54.89;92818.53;1851341;76;21124;-75
2021/04/21 09:23:07;;;;;;;4.10;3.70;;;;;;;9.90;52.49;92821.52;1851116;77;21105;-74
2021/04/21 09:25:37;;;;;;;4.22;3.85;;;;;;;10.10;51.06;92812.75;1864735;76;21488;-76
2021/04/21 09:28:08;;;;;;;4.83;3.60;;;;;;;10.32;50.64;92818.14;1851952;77;21614;-77
2021/04/21 09:30:37;;;;;;;5.90;3.77;;;;;;;10.46;49.74;92799.53;1870848;76;21345;-77
2021/04/21 09:33:05;;;;;;;3.80;3.50;;;;;;;10.55;50.63;92811.25;1841482;76;21192;-76
2021/04/21 09:35:42;;;;;;;4.30;3.42;;;;;;;10.55;49.17;92807.17;1815983;78;21175;-74
2021/04/21 09:38:14;;;;;;;4.87;3.85;;;;;;;10.60;51.27;92800.67;1802241;79;21450;-75
2021/04/21 09:40:48;;;;;;;5.08;3.58;;;;;;;10.75;48.04;92805.31;1816633;76;21151;-76
2021/04/21 09:43:19;;;;;;;4.17;3.45;;;;;;;10.83;50.64;92809.50;1870951;76;22326;-76
2021/04/21 09:45:49;;;;;;;6.05;3.83;;;;;;;10.95;49.16;92812.23;1853237;77;21614;-74
2021/04/21 09:48:19;;;;;;;4.85;4.17;;;;;;;10.96;47.30;92802.12;1808317;78;21721;-77
2021/04/21 09:51:05;;;;;;;4.47;3.70;;;;;;;10.81;46.22;92805.05;1804343;79;21058;-76
2021/04/21 09:53:39;;;;;;;4.12;3.70;;;;;;;10.68;48.12;92791.82;1840430;76;21089;-75
2021/04/21 09:56:24;;;;;;;5.30;3.98;;;;;;;10.56;47.99;92789.67;1858984;76;22189;-76
2021/04/21 09:58:57;;;;;;;3.80;3.40;;;;;;;10.37;47.80;92797.29;1851302;77;21056;-76
2021/04/21 10:01:36;;;;;;;4.83;3.55;;;;;;;10.21;48.19;92799.22;1844636;76;33772;-75
2021/04/21 10:04:15;;;;;;;3.90;3.40;;;;;;;10.19;50.35;92798.08;1818676;78;21103;-77
2021/04/21 10:06:53;;;;;;;3.87;3.47;;;;;;;10.26;50.86;92788.51;1832751;77;21230;-74
2021/04/21 10:09:32;;;;;;;4.72;3.52;;;;;;;10.29;49.46;92799.16;1831957;78;21480;-77
2021/04/21 10:12:36;;;;;;;5.35;3.40;;;;;;;10.30;49.95;92800.09;1844543;77;21182;-75
2021/04/21 10:15:09;;;;;;;4.70;4.17;;;;;;;10.43;50.59;92800.34;1852298;77;21045;-75
2021/04/21 10:17:40;;;;;;;3.80;3.40;;;;;;;10.61;49.36;92791.36;1845772;77;21081;-76
2021/04/21 10:20:14;;;;;;;4.35;3.60;;;;;;;10.72;49.62;92791.20;1854627;75;21587;-76
2021/04/21 10:22:46;;;;;;;3.95;3.60;;;;;;;10.83;50.15;92797.26;1897733;75;21175;-77
2021/04/21 10:25:15;;;;;;;4.10;3.62;;;;;;;10.89;48.28;92802.39;1850258;77;21187;-77
2021/04/21 10:27:42;;;;;;;5.12;3.60;;;;;;;10.84;48.60;92811.03;1833900;77;21427;-75
2021/04/21 10:30:12;;;;;;;6.45;5.17;;;;;;;10.78;50.07;92809.17;1881422;75;21107;-75
2021/04/21 10:32:41;;;;;;;13.28;8.43;;;;;;;10.58;51.37;92807.72;1841627;76;21136;-76
2021/04/21 10:35:09;;;;;;;4.67;4.17;;;;;;;10.32;52.02;92818.14;1825981;77;21392;-76
2021/04/21 10:37:39;;;;;;;4.60;4.20;;;;;;;10.10;52.49;92820.31;1777083;80;21194;-76
2021/04/21 10:40:11;;;;;;;4.15;3.30;;;;;;;9.91;51.69;92828.48;1811405;77;21439;-76
2021/04/21 10:43:03;;;;;;;4.33;3.80;;;;;;;9.71;52.61;92823.47;1873057;76;21044;-77
2021/04/21 10:45:35;;;;;;;4.20;3.67;;;;;;;9.51;55.20;92822.48;1859790;75;21165;-76
2021/04/21 10:48:03;;;;;;;3.85;3.47;;;;;;;9.32;56.30;92819.16;1824835;77;21414;-76
2021/04/21 10:50:43;;;;;;;4.33;3.85;;;;;;;9.23;56.46;92820.99;1844063;77;21575;-77
2021/04/21 10:53:30;;;;;;;4.47;3.67;;;;;;;9.25;58.51;92821.94;1790007;78;21164;-77
2021/04/21 10:55:59;;;;;;;4.25;3.85;;;;;;;9.30;60.25;92821.52;1825481;77;21285;-76
2021/04/21 10:58:31;;;;;;;4.00;3.55;;;;;;;9.30;60.72;92813.38;1862773;76;21489;-76
2021/04/21 11:00:59;;;;;;;6.22;3.52;;;;;;;9.26;60.37;92809.17;1832494;76;22244;-76
2021/04/21 11:03:31;;;;;;;3.95;3.20;;;;;;;9.20;58.65;92819.08;1804505;77;21187;-76
2021/04/21 11:06:00;;;;;;;4.05;3.08;;;;;;;9.18;57.94;92819.31;1847111;76;21199;-77
2021/04/21 11:08:29;;;;;;;3.65;2.98;;;;;;;9.24;58.24;92814.98;1824260;78;21153;-76
2021/04/21 11:11:04;;;;;;;4.95;3.98;;;;;;;9.38;59.38;92816.21;1803921;79;21124;-77
2021/04/21 11:13:38;;;;;;;5.40;4.12;;;;;;;9.52;60.36;92821.34;1803148;79;21637;-76
2021/04/21 11:16:24;;;;;;;4.60;4.10;;;;;;;9.55;61.28;92828.06;1868006;76;21705;-76
2021/04/21 11:18:51;;;;;;;4.80;3.77;;;;;;;9.45;61.33;92833.02;1789620;76;21478;-76
2021/04/21 11:21:20;;;;;;;8.25;5.15;;;;;;;9.22;61.60;92850.66;1830271;77;21186;-76
2021/04/21 11:24:02;;;;;;;5.08;3.95;;;;;;;8.97;61.81;92856.25;1835025;78;21594;-77
2021/04/21 11:26:31;;;;;;;3.45;3.15;;;;;;;8.70;61.29;92864.77;1814519;76;21448;-77
2021/04/21 11:29:22;;;;;;;4.67;3.72;;;;;;;8.41;64.31;92874.97;1869352;76;21131;-78
2021/04/21 11:31:55;;;;;;;6.92;4.05;;;;;;;8.09;67.69;92881.27;1850556;77;21143;-77
2021/04/21 11:34:33;;;;;;;4.83;3.85;;;;;;;7.66;69.18;92886.00;1800461;79;21077;-78
2021/04/21 11:37:18;;;;;;;3.70;2.80;;;;;;;7.33;71.19;92892.00;1795652;79;21188;-78
2021/04/21 11:39:52;;;;;;;3.45;3.15;;;;;;;6.99;72.39;92882.92;1802666;79;22342;-78
2021/04/21 11:42:43;;;;;;;8.13;4.17;;;;;;;6.73;73.66;92884.06;1844451;77;21602;-78
2021/04/21 11:45:27;;;;;;;34.35;14.03;;;;;;;6.59;74.17;92898.12;1799429;78;21634;-77
2021/04/21 11:48:06;;;;;;;41.55;14.98;;;;;;;6.41;75.42;92906.93;1815619;78;21273;-78
2021/04/21 11:50:38;;;;;;;58.48;18.20;;;;;;;6.23;76.31;92907.44;1825670;78;21631;-78
2021/04/21 11:53:19;;;;;;;49.30;17.62;;;;;;;6.08;77.07;92919.52;1803545;77;21426;-77
2021/04/21 11:55:59;;;;;;;13.58;6.15;;;;;;;5.96;77.33;92914.45;1835991;78;21693;-77
2021/04/21 11:58:33;;;;;;;14.50;10.60;;;;;;;5.80;77.13;92908.55;1845446;77;21675;-77
2021/04/21 12:01:06;;;;;;;16.00;11.93;;;;;;;5.62;77.61;92900.35;1819537;76;21198;-77
2021/04/21 12:03:42;;;;;;;7.05;5.72;;;;;;;5.46;77.70;92894.48;1800407;79;21183;-77
2021/04/21 12:06:14;;;;;;;12.25;8.08;;;;;;;5.42;79.24;92894.45;1802868;79;21371;-76
2021/04/21 12:08:51;;;;;;;7.58;5.10;;;;;;;5.39;80.64;92886.34;1821832;76;21206;-76
2021/04/21 12:11:28;;;;;;;10.10;8.33;;;;;;;5.40;80.97;92883.25;1867985;76;21140;-76
2021/04/21 12:13:57;;;;;;;7.53;6.12;;;;;;;5.41;80.59;92878.62;1852706;77;21091;-76